Terminal Aerodrome Forecast
Issued by NWS Upton, NY

Home | Current Version | Previous Version | Text Only | Print | Product List | Glossary On
Versions: 1 2 3 4 5 6 7 8 9 10 11 12 13 14 15 16 17 18 19 20 21 22 23 24 25 26 27 28 29 30 31 32 33 34 35 36 37
360
FTUS41 KOKX 281503 AAD
TAFJFK
TAF AMD
KJFK 281503Z 2815/2918 03008KT P6SM SCT035 BKN250
     FM281630 15009KT P6SM SCT040 BKN250
     FM290200 08006KT P6SM SCT040 BKN130
     FM290500 05008KT 6SM -RA BR BKN035
     FM290800 03013G20KT 5SM -RA BR SCT020 OVC035
     FM291100 03017G27KT 3SM -RA BR BKN020=

USA.gov is the U.S. government's official web portal to all federal, state and local government web resources and services.